sensor_id;sensor_type;location;lat;lon;timestamp;temperature;humidity
4635;DHT22;2330;48.158;11.816;2024-01-16T00:00:56;-2.60;98.50
4635;DHT22;2330;48.158;11.816;2024-01-16T00:03:23;-2.60;98.50
4635;DHT22;2330;48.158;11.816;2024-01-16T00:05:50;-2.60;98.50
4635;DHT22;2330;48.158;11.816;2024-01-16T00:08:17;-2.60;98.50
4635;DHT22;2330;48.158;11.816;2024-01-16T00:10:44;-2.60;98.50
4635;DHT22;2330;48.158;11.816;2024-01-16T00:13:10;-2.60;98.50
4635;DHT22;2330;48.158;11.816;2024-01-16T00:15:37;-2.50;98.50
4635;DHT22;2330;48.158;11.816;2024-01-16T00:18:04;-2.50;98.50
4635;DHT22;2330;48.158;11.816;2024-01-16T00:20:31;-2.50;98.50
4635;DHT22;2330;48.158;11.816;2024-01-16T00:22:58;-2.50;98.50
4635;DHT22;2330;48.158;11.816;2024-01-16T00:25:25;-2.50;98.50
4635;DHT22;2330;48.158;11.816;2024-01-16T00:27:52;-2.60;98.50
4635;DHT22;2330;48.158;11.816;2024-01-16T00:30:19;-2.60;98.50
4635;DHT22;2330;48.158;11.816;2024-01-16T00:32:46;-2.60;98.50
4635;DHT22;2330;48.158;11.816;2024-01-16T00:35:13;-2.70;98.50
4635;DHT22;2330;48.158;11.816;2024-01-16T00:37:40;-2.70;98.50
4635;DHT22;2330;48.158;11.816;2024-01-16T00:40:07;-2.70;98.50
4635;DHT22;2330;48.158;11.816;2024-01-16T00:42:35;-2.70;98.50
4635;DHT22;2330;48.158;11.816;2024-01-16T00:45:02;-2.70;98.50
4635;DHT22;2330;48.158;11.816;2024-01-16T00:47:29;-2.70;98.50
4635;DHT22;2330;48.158;11.816;2024-01-16T00:49:56;-2.70;98.50
4635;DHT22;2330;48.158;11.816;2024-01-16T00:52:22;-2.70;98.50
4635;DHT22;2330;48.158;11.816;2024-01-16T00:54:49;-2.70;98.50
4635;DHT22;2330;48.158;11.816;2024-01-16T00:57:16;-2.70;98.50
4635;DHT22;2330;48.158;11.816;2024-01-16T00:59:46;-2.60;98.50
4635;DHT22;2330;48.158;11.816;2024-01-16T01:02:14;-2.60;98.50
4635;DHT22;2330;48.158;11.816;2024-01-16T01:04:40;-2.60;98.50
4635;DHT22;2330;48.158;11.816;2024-01-16T01:07:08;-2.60;98.50
4635;DHT22;2330;48.158;11.816;2024-01-16T01:09:35;-2.60;98.50
4635;DHT22;2330;48.158;11.816;2024-01-16T01:12:02;-2.60;98.50
4635;DHT22;2330;48.158;11.816;2024-01-16T01:14:28;-2.60;98.50
4635;DHT22;2330;48.158;11.816;2024-01-16T01:16:56;-2.60;98.50
4635;DHT22;2330;48.158;11.816;2024-01-16T01:19:23;-2.70;98.50
4635;DHT22;2330;48.158;11.816;2024-01-16T01:21:50;-2.70;98.50
4635;DHT22;2330;48.158;11.816;2024-01-16T01:24:17;-2.70;98.50
4635;DHT22;2330;48.158;11.816;2024-01-16T01:26:44;-2.70;98.50
4635;DHT22;2330;48.158;11.816;2024-01-16T01:29:11;-2.70;98.50
4635;DHT22;2330;48.158;11.816;2024-01-16T01:31:37;-2.70;98.50
4635;DHT22;2330;48.158;11.816;2024-01-16T01:34:04;-2.70;98.50
4635;DHT22;2330;48.158;11.816;2024-01-16T01:36:31;-2.70;98.50
4635;DHT22;2330;48.158;11.816;2024-01-16T01:38:58;-2.70;98.50
4635;DHT22;2330;48.158;11.816;2024-01-16T01:41:25;-2.70;98.50
4635;DHT22;2330;48.158;11.816;2024-01-16T01:43:52;-2.70;98.50
4635;DHT22;2330;48.158;11.816;2024-01-16T01:46:19;-2.70;98.50
4635;DHT22;2330;48.158;11.816;2024-01-16T01:48:47;-2.80;98.50
4635;DHT22;2330;48.158;11.816;2024-01-16T01:51:17;-2.80;98.50
4635;DHT22;2330;48.158;11.816;2024-01-16T01:53:47;-2.80;98.50
4635;DHT22;2330;48.158;11.816;2024-01-16T01:56:17;-2.80;98.50
4635;DHT22;2330;48.158;11.816;2024-01-16T01:58:46;-2.80;98.50
4635;DHT22;2330;48.158;11.816;2024-01-16T02:01:15;-2.80;98.50
4635;DHT22;2330;48.158;11.816;2024-01-16T02:03:44;-2.80;98.50
4635;DHT22;2330;48.158;11.816;2024-01-16T02:06:13;-2.70;98.50
4635;DHT22;2330;48.158;11.816;2024-01-16T02:08:44;-2.70;98.50
4635;DHT22;2330;48.158;11.816;2024-01-16T02:11:11;-2.70;98.50
4635;DHT22;2330;48.158;11.816;2024-01-16T02:13:38;-2.70;98.50
4635;DHT22;2330;48.158;11.816;2024-01-16T02:16:05;-2.70;98.50
4635;DHT22;2330;48.158;11.816;2024-01-16T02:18:32;-2.70;98.50
4635;DHT22;2330;48.158;11.816;2024-01-16T02:21:00;-2.70;98.50
4635;DHT22;2330;48.158;11.816;2024-01-16T02:23:29;-2.70;98.50
4635;DHT22;2330;48.158;11.816;2024-01-16T02:25:57;-2.70;98.50
4635;DHT22;2330;48.158;11.816;2024-01-16T02:28:24;-2.70;98.50
4635;DHT22;2330;48.158;11.816;2024-01-16T02:30:51;-2.70;98.50
4635;DHT22;2330;48.158;11.816;2024-01-16T02:33:18;-2.60;98.50
4635;DHT22;2330;48.158;11.816;2024-01-16T02:35:45;-2.60;98.50
4635;DHT22;2330;48.158;11.816;2024-01-16T02:38:12;-2.70;98.50
4635;DHT22;2330;48.158;11.816;2024-01-16T02:40:38;-2.60;98.50
4635;DHT22;2330;48.158;11.816;2024-01-16T02:43:05;-2.70;98.50
4635;DHT22;2330;48.158;11.816;2024-01-16T02:45:32;-2.70;98.50
4635;DHT22;2330;48.158;11.816;2024-01-16T02:47:59;-2.70;98.50
4635;DHT22;2330;48.158;11.816;2024-01-16T02:50:26;-2.70;98.50
4635;DHT22;2330;48.158;11.816;2024-01-16T02:52:54;-2.80;98.50
4635;DHT22;2330;48.158;11.816;2024-01-16T02:55:21;-2.80;98.50
4635;DHT22;2330;48.158;11.816;2024-01-16T02:57:48;-2.90;98.50
4635;DHT22;2330;48.158;11.816;2024-01-16T03:00:15;-3.00;98.50
4635;DHT22;2330;48.158;11.816;2024-01-16T03:02:42;-3.10;98.50
4635;DHT22;2330;48.158;11.816;2024-01-16T03:05:09;-3.10;98.50
4635;DHT22;2330;48.158;11.816;2024-01-16T03:07:36;-3.20;98.50
4635;DHT22;2330;48.158;11.816;2024-01-16T03:10:03;-3.30;98.50
4635;DHT22;2330;48.158;11.816;2024-01-16T03:12:30;-3.30;98.50
4635;DHT22;2330;48.158;11.816;2024-01-16T03:14:57;-3.50;98.50
4635;DHT22;2330;48.158;11.816;2024-01-16T03:17:24;-3.50;98.50
4635;DHT22;2330;48.158;11.816;2024-01-16T03:19:51;-3.50;98.50
4635;DHT22;2330;48.158;11.816;2024-01-16T03:22:18;-3.50;98.50
4635;DHT22;2330;48.158;11.816;2024-01-16T03:24:45;-3.60;98.50
4635;DHT22;2330;48.158;11.816;2024-01-16T03:27:12;-3.60;98.50
4635;DHT22;2330;48.158;11.816;2024-01-16T03:29:40;-3.70;98.50
4635;DHT22;2330;48.158;11.816;2024-01-16T03:32:07;-3.70;98.50
4635;DHT22;2330;48.158;11.816;2024-01-16T03:34:34;-3.70;98.50
4635;DHT22;2330;48.158;11.816;2024-01-16T03:37:01;-3.80;98.50
4635;DHT22;2330;48.158;11.816;2024-01-16T03:39:28;-3.90;98.50
4635;DHT22;2330;48.158;11.816;2024-01-16T03:41:54;-3.90;98.50
4635;DHT22;2330;48.158;11.816;2024-01-16T03:44:21;-3.90;98.50
4635;DHT22;2330;48.158;11.816;2024-01-16T03:46:48;-4.00;98.50
4635;DHT22;2330;48.158;11.816;2024-01-16T03:49:15;-4.10;98.50
4635;DHT22;2330;48.158;11.816;2024-01-16T03:51:41;-4.10;98.50
4635;DHT22;2330;48.158;11.816;2024-01-16T03:54:13;-4.20;98.50
4635;DHT22;2330;48.158;11.816;2024-01-16T03:56:40;-4.30;98.50
4635;DHT22;2330;48.158;11.816;2024-01-16T03:59:07;-4.40;98.50
4635;DHT22;2330;48.158;11.816;2024-01-16T04:01:34;-4.50;98.50
4635;DHT22;2330;48.158;11.816;2024-01-16T04:04:03;-4.60;98.50
4635;DHT22;2330;48.158;11.816;2024-01-16T04:06:33;-4.70;98.50
4635;DHT22;2330;48.158;11.816;2024-01-16T04:09:00;-4.80;98.50
4635;DHT22;2330;48.158;11.816;2024-01-16T04:11:27;-4.80;98.50
4635;DHT22;2330;48.158;11.816;2024-01-16T04:13:54;-4.90;98.50
4635;DHT22;2330;48.158;11.816;2024-01-16T04:16:21;-5.00;98.50
4635;DHT22;2330;48.158;11.816;2024-01-16T04:18:48;-4.90;98.50
4635;DHT22;2330;48.158;11.816;2024-01-16T04:21:15;-5.00;98.50
4635;DHT22;2330;48.158;11.816;2024-01-16T04:23:46;-5.00;98.50
4635;DHT22;2330;48.158;11.816;2024-01-16T04:26:13;-5.00;98.50
4635;DHT22;2330;48.158;11.816;2024-01-16T04:28:40;-5.10;98.50
4635;DHT22;2330;48.158;11.816;2024-01-16T04:31:07;-5.10;98.50
4635;DHT22;2330;48.158;11.816;2024-01-16T04:33:34;-5.10;98.50
4635;DHT22;2330;48.158;11.816;2024-01-16T04:36:01;-5.20;98.50
4635;DHT22;2330;48.158;11.816;2024-01-16T04:38:28;-5.30;98.50
4635;DHT22;2330;48.158;11.816;2024-01-16T04:40:55;-5.30;98.50
4635;DHT22;2330;48.158;11.816;2024-01-16T04:43:22;-5.30;98.50
4635;DHT22;2330;48.158;11.816;2024-01-16T04:45:49;-5.30;98.50
4635;DHT22;2330;48.158;11.816;2024-01-16T04:48:16;-5.30;98.50
4635;DHT22;2330;48.158;11.816;2024-01-16T04:50:43;-5.30;98.50
4635;DHT22;2330;48.158;11.816;2024-01-16T04:53:12;-5.20;98.50
4635;DHT22;2330;48.158;11.816;2024-01-16T04:55:38;-5.10;98.50
4635;DHT22;2330;48.158;11.816;2024-01-16T04:58:05;-5.10;98.50
4635;DHT22;2330;48.158;11.816;2024-01-16T05:00:32;-5.10;98.50
4635;DHT22;2330;48.158;11.816;2024-01-16T05:03:01;-5.20;98.50
4635;DHT22;2330;48.158;11.816;2024-01-16T05:05:29;-5.20;98.50
4635;DHT22;2330;48.158;11.816;2024-01-16T05:07:56;-5.20;98.50
4635;DHT22;2330;48.158;11.816;2024-01-16T05:10:23;-5.10;98.50
4635;DHT22;2330;48.158;11.816;2024-01-16T05:12:51;-5.10;98.50
4635;DHT22;2330;48.158;11.816;2024-01-16T05:15:17;-5.10;98.50
4635;DHT22;2330;48.158;11.816;2024-01-16T05:17:44;-5.20;98.50
4635;DHT22;2330;48.158;11.816;2024-01-16T05:20:11;-5.20;98.50
4635;DHT22;2330;48.158;11.816;2024-01-16T05:22:38;-5.20;98.50
4635;DHT22;2330;48.158;11.816;2024-01-16T05:25:06;-5.30;98.50
4635;DHT22;2330;48.158;11.816;2024-01-16T05:27:35;-5.30;98.50
4635;DHT22;2330;48.158;11.816;2024-01-16T05:30:02;-5.40;98.50
4635;DHT22;2330;48.158;11.816;2024-01-16T05:32:30;-5.40;98.50
4635;DHT22;2330;48.158;11.816;2024-01-16T05:34:57;-5.30;98.50
4635;DHT22;2330;48.158;11.816;2024-01-16T05:37:24;-5.40;98.50
4635;DHT22;2330;48.158;11.816;2024-01-16T05:39:50;-5.50;98.50
4635;DHT22;2330;48.158;11.816;2024-01-16T05:42:17;-5.50;98.50
4635;DHT22;2330;48.158;11.816;2024-01-16T05:44:44;-5.70;98.50
4635;DHT22;2330;48.158;11.816;2024-01-16T05:47:11;-5.60;98.50
4635;DHT22;2330;48.158;11.816;2024-01-16T05:49:38;-5.60;98.50
4635;DHT22;2330;48.158;11.816;2024-01-16T05:52:05;-5.50;98.50
4635;DHT22;2330;48.158;11.816;2024-01-16T05:54:32;-5.60;98.50
4635;DHT22;2330;48.158;11.816;2024-01-16T05:56:59;-5.70;98.50
4635;DHT22;2330;48.158;11.816;2024-01-16T05:59:25;-5.90;98.50
4635;DHT22;2330;48.158;11.816;2024-01-16T06:01:52;-6.00;98.50
4635;DHT22;2330;48.158;11.816;2024-01-16T06:04:19;-6.00;98.50
4635;DHT22;2330;48.158;11.816;2024-01-16T06:06:46;-5.90;98.50
4635;DHT22;2330;48.158;11.816;2024-01-16T06:09:14;-5.80;98.50
4635;DHT22;2330;48.158;11.816;2024-01-16T06:11:42;-5.80;98.50
4635;DHT22;2330;48.158;11.816;2024-01-16T06:14:09;-5.70;98.50
4635;DHT22;2330;48.158;11.816;2024-01-16T06:16:36;-5.60;98.50
4635;DHT22;2330;48.158;11.816;2024-01-16T06:19:03;-5.80;98.50
4635;DHT22;2330;48.158;11.816;2024-01-16T06:21:31;-5.90;98.50
4635;DHT22;2330;48.158;11.816;2024-01-16T06:23:58;-5.70;98.50
4635;DHT22;2330;48.158;11.816;2024-01-16T06:26:25;-5.70;98.50
4635;DHT22;2330;48.158;11.816;2024-01-16T06:28:52;-5.60;98.50
4635;DHT22;2330;48.158;11.816;2024-01-16T06:31:19;-5.70;98.50
4635;DHT22;2330;48.158;11.816;2024-01-16T06:33:45;-5.70;98.50
4635;DHT22;2330;48.158;11.816;2024-01-16T06:36:12;-5.80;98.50
4635;DHT22;2330;48.158;11.816;2024-01-16T06:38:39;-5.80;98.50
4635;DHT22;2330;48.158;11.816;2024-01-16T06:41:07;-5.80;98.50
4635;DHT22;2330;48.158;11.816;2024-01-16T06:43:34;-5.90;98.50
4635;DHT22;2330;48.158;11.816;2024-01-16T06:46:01;-5.90;98.50
4635;DHT22;2330;48.158;11.816;2024-01-16T06:48:28;-6.00;98.50
4635;DHT22;2330;48.158;11.816;2024-01-16T06:50:56;-6.10;98.50
4635;DHT22;2330;48.158;11.816;2024-01-16T06:53:23;-6.10;98.50
4635;DHT22;2330;48.158;11.816;2024-01-16T06:55:50;-6.20;98.50
4635;DHT22;2330;48.158;11.816;2024-01-16T06:58:16;-6.40;98.50
4635;DHT22;2330;48.158;11.816;2024-01-16T07:00:43;-6.30;98.50
4635;DHT22;2330;48.158;11.816;2024-01-16T07:03:11;-6.00;98.50
4635;DHT22;2330;48.158;11.816;2024-01-16T07:05:38;-5.70;98.50
4635;DHT22;2330;48.158;11.816;2024-01-16T07:08:07;-5.70;98.50
4635;DHT22;2330;48.158;11.816;2024-01-16T07:10:34;-5.80;98.50
4635;DHT22;2330;48.158;11.816;2024-01-16T07:13:02;-5.90;98.50
4635;DHT22;2330;48.158;11.816;2024-01-16T07:15:29;-5.90;98.50
4635;DHT22;2330;48.158;11.816;2024-01-16T07:17:56;-5.90;98.50
4635;DHT22;2330;48.158;11.816;2024-01-16T07:20:23;-5.90;98.50
4635;DHT22;2330;48.158;11.816;2024-01-16T07:22:49;-5.80;98.50
4635;DHT22;2330;48.158;11.816;2024-01-16T07:25:16;-5.60;98.50
4635;DHT22;2330;48.158;11.816;2024-01-16T07:27:43;-5.60;98.50
4635;DHT22;2330;48.158;11.816;2024-01-16T07:30:14;-5.50;98.50
4635;DHT22;2330;48.158;11.816;2024-01-16T07:32:41;-5.40;98.50
4635;DHT22;2330;48.158;11.816;2024-01-16T07:35:08;-5.40;98.50
4635;DHT22;2330;48.158;11.816;2024-01-16T07:37:35;-5.30;98.50
4635;DHT22;2330;48.158;11.816;2024-01-16T07:40:03;-5.30;98.50
4635;DHT22;2330;48.158;11.816;2024-01-16T07:42:32;-5.20;98.50
4635;DHT22;2330;48.158;11.816;2024-01-16T07:45:01;-5.20;98.50
4635;DHT22;2330;48.158;11.816;2024-01-16T07:47:31;-5.20;98.50
4635;DHT22;2330;48.158;11.816;2024-01-16T07:50:00;-5.10;98.50
4635;DHT22;2330;48.158;11.816;2024-01-16T07:52:30;-4.90;98.50
4635;DHT22;2330;48.158;11.816;2024-01-16T07:54:57;-4.80;98.50
4635;DHT22;2330;48.158;11.816;2024-01-16T07:57:24;-4.70;98.50
4635;DHT22;2330;48.158;11.816;2024-01-16T07:59:50;-4.80;98.50
4635;DHT22;2330;48.158;11.816;2024-01-16T08:02:17;-4.90;98.50
4635;DHT22;2330;48.158;11.816;2024-01-16T08:04:46;-4.80;98.50
4635;DHT22;2330;48.158;11.816;2024-01-16T08:07:13;-4.70;98.50
4635;DHT22;2330;48.158;11.816;2024-01-16T08:09:39;-4.50;98.50
4635;DHT22;2330;48.158;11.816;2024-01-16T08:12:07;-4.40;98.50
4635;DHT22;2330;48.158;11.816;2024-01-16T08:14:34;-4.30;98.50
4635;DHT22;2330;48.158;11.816;2024-01-16T08:17:01;-4.20;98.50
4635;DHT22;2330;48.158;11.816;2024-01-16T08:19:28;-4.10;98.50
4635;DHT22;2330;48.158;11.816;2024-01-16T08:21:55;-4.00;98.50
4635;DHT22;2330;48.158;11.816;2024-01-16T08:24:22;-3.80;98.50
4635;DHT22;2330;48.158;11.816;2024-01-16T08:26:49;-3.60;98.50
4635;DHT22;2330;48.158;11.816;2024-01-16T08:29:16;-3.30;98.50
4635;DHT22;2330;48.158;11.816;2024-01-16T08:31:43;-3.10;98.50
4635;DHT22;2330;48.158;11.816;2024-01-16T08:34:10;-2.70;98.50
4635;DHT22;2330;48.158;11.816;2024-01-16T08:36:37;-2.50;98.50
4635;DHT22;2330;48.158;11.816;2024-01-16T08:39:03;-2.30;98.50
4635;DHT22;2330;48.158;11.816;2024-01-16T08:41:31;-2.20;98.50
4635;DHT22;2330;48.158;11.816;2024-01-16T08:43:58;-2.40;98.50
4635;DHT22;2330;48.158;11.816;2024-01-16T08:46:25;-2.50;98.50
4635;DHT22;2330;48.158;11.816;2024-01-16T08:48:52;-2.40;98.50
4635;DHT22;2330;48.158;11.816;2024-01-16T08:51:19;-2.20;98.50
4635;DHT22;2330;48.158;11.816;2024-01-16T08:53:46;-2.00;98.50
4635;DHT22;2330;48.158;11.816;2024-01-16T08:56:14;-1.90;98.50
4635;DHT22;2330;48.158;11.816;2024-01-16T08:58:43;-1.90;98.50
4635;DHT22;2330;48.158;11.816;2024-01-16T09:01:10;-1.90;98.50
4635;DHT22;2330;48.158;11.816;2024-01-16T09:03:37;-1.90;98.50
4635;DHT22;2330;48.158;11.816;2024-01-16T09:06:04;-1.80;98.50
4635;DHT22;2330;48.158;11.816;2024-01-16T09:08:31;-1.80;98.50
4635;DHT22;2330;48.158;11.816;2024-01-16T09:10:58;-1.70;98.50
4635;DHT22;2330;48.158;11.816;2024-01-16T09:13:25;-1.50;98.50
4635;DHT22;2330;48.158;11.816;2024-01-16T09:15:52;-1.40;98.50
4635;DHT22;2330;48.158;11.816;2024-01-16T09:18:19;-1.40;98.50
4635;DHT22;2330;48.158;11.816;2024-01-16T09:20:46;-1.40;98.50
4635;DHT22;2330;48.158;11.816;2024-01-16T09:23:13;-1.20;98.50
4635;DHT22;2330;48.158;11.816;2024-01-16T09:25:40;-1.20;98.50
4635;DHT22;2330;48.158;11.816;2024-01-16T09:28:09;-1.20;98.50
4635;DHT22;2330;48.158;11.816;2024-01-16T09:30:36;-1.10;98.50
4635;DHT22;2330;48.158;11.816;2024-01-16T09:33:03;-1.10;98.50
4635;DHT22;2330;48.158;11.816;2024-01-16T09:35:33;-1.10;98.50
4635;DHT22;2330;48.158;11.816;2024-01-16T09:38:00;-1.00;98.50
4635;DHT22;2330;48.158;11.816;2024-01-16T09:40:27;-0.90;98.50
4635;DHT22;2330;48.158;11.816;2024-01-16T09:42:54;-0.80;98.50
4635;DHT22;2330;48.158;11.816;2024-01-16T09:45:21;-0.70;98.50
4635;DHT22;2330;48.158;11.816;2024-01-16T09:47:51;-0.60;98.50
4635;DHT22;2330;48.158;11.816;2024-01-16T09:50:19;-0.50;98.50
4635;DHT22;2330;48.158;11.816;2024-01-16T09:52:47;-0.50;98.50
4635;DHT22;2330;48.158;11.816;2024-01-16T09:55:15;-0.50;98.50
4635;DHT22;2330;48.158;11.816;2024-01-16T09:57:45;-0.40;98.50
4635;DHT22;2330;48.158;11.816;2024-01-16T10:00:12;-0.20;98.50
4635;DHT22;2330;48.158;11.816;2024-01-16T10:02:40;-0.20;98.50
4635;DHT22;2330;48.158;11.816;2024-01-16T10:05:11;-0.10;98.50
4635;DHT22;2330;48.158;11.816;2024-01-16T10:07:41;-0.10;98.50
4635;DHT22;2330;48.158;11.816;2024-01-16T10:10:10;-0.20;98.50
4635;DHT22;2330;48.158;11.816;2024-01-16T10:12:39;-0.10;98.50
4635;DHT22;2330;48.158;11.816;2024-01-16T10:15:06;-0.20;98.50
4635;DHT22;2330;48.158;11.816;2024-01-16T10:17:41;-0.10;98.50
4635;DHT22;2330;48.158;11.816;2024-01-16T10:20:10;-0.10;98.50
4635;DHT22;2330;48.158;11.816;2024-01-16T10:22:41;0.00;98.50
4635;DHT22;2330;48.158;11.816;2024-01-16T10:25:09;0.10;98.50
4635;DHT22;2330;48.158;11.816;2024-01-16T10:27:41;0.10;98.50
4635;DHT22;2330;48.158;11.816;2024-01-16T10:30:08;0.10;98.50
4635;DHT22;2330;48.158;11.816;2024-01-16T10:32:40;0.20;98.50
4635;DHT22;2330;48.158;11.816;2024-01-16T10:35:14;0.10;98.50
4635;DHT22;2330;48.158;11.816;2024-01-16T10:37:52;0.10;98.50
4635;DHT22;2330;48.158;11.816;2024-01-16T10:40:22;0.20;98.50
4635;DHT22;2330;48.158;11.816;2024-01-16T10:45:33;0.30;98.50
4635;DHT22;2330;48.158;11.816;2024-01-16T10:48:04;0.30;98.50
4635;DHT22;2330;48.158;11.816;2024-01-16T10:50:32;0.50;98.50
4635;DHT22;2330;48.158;11.816;2024-01-16T10:53:02;0.60;98.50
4635;DHT22;2330;48.158;11.816;2024-01-16T10:55:30;0.80;98.50
4635;DHT22;2330;48.158;11.816;2024-01-16T10:57:58;0.90;98.50
4635;DHT22;2330;48.158;11.816;2024-01-16T11:00:28;0.90;98.50
4635;DHT22;2330;48.158;11.816;2024-01-16T11:06:12;0.90;98.50
4635;DHT22;2330;48.158;11.816;2024-01-16T11:08:41;1.00;98.50
4635;DHT22;2330;48.158;11.816;2024-01-16T11:11:08;1.20;98.50
4635;DHT22;2330;48.158;11.816;2024-01-16T11:13:36;1.00;98.50
4635;DHT22;2330;48.158;11.816;2024-01-16T11:16:03;1.20;98.50
4635;DHT22;2330;48.158;11.816;2024-01-16T11:18:32;1.30;98.50
4635;DHT22;2330;48.158;11.816;2024-01-16T11:21:08;0.90;98.50
4635;DHT22;2330;48.158;11.816;2024-01-16T11:23:41;0.90;98.50
4635;DHT22;2330;48.158;11.816;2024-01-16T11:26:28;1.10;98.50
4635;DHT22;2330;48.158;11.816;2024-01-16T11:28:59;1.10;98.50
4635;DHT22;2330;48.158;11.816;2024-01-16T11:31:34;1.20;98.50
4635;DHT22;2330;48.158;11.816;2024-01-16T11:34:02;1.20;98.50
4635;DHT22;2330;48.158;11.816;2024-01-16T11:36:50;1.00;98.50
4635;DHT22;2330;48.158;11.816;2024-01-16T11:39:23;1.00;98.50
4635;DHT22;2330;48.158;11.816;2024-01-16T11:41:58;0.70;98.50
4635;DHT22;2330;48.158;11.816;2024-01-16T11:44:47;0.40;98.50
4635;DHT22;2330;48.158;11.816;2024-01-16T11:47:21;0.10;98.50
4635;DHT22;2330;48.158;11.816;2024-01-16T11:49:51;0.00;98.50
4635;DHT22;2330;48.158;11.816;2024-01-16T11:52:40;0.10;98.50
4635;DHT22;2330;48.158;11.816;2024-01-16T11:55:28;0.20;98.50
4635;DHT22;2330;48.158;11.816;2024-01-16T11:58:21;0.30;98.50
4635;DHT22;2330;48.158;11.816;2024-01-16T12:00:52;0.30;98.50
4635;DHT22;2330;48.158;11.816;2024-01-16T12:03:23;0.30;98.50
4635;DHT22;2330;48.158;11.816;2024-01-16T12:06:01;0.10;98.50
4635;DHT22;2330;48.158;11.816;2024-01-16T12:08:30;0.00;98.50
4635;DHT22;2330;48.158;11.816;2024-01-16T12:10:57;-0.10;98.50
4635;DHT22;2330;48.158;11.816;2024-01-16T12:13:24;-0.10;98.50
4635;DHT22;2330;48.158;11.816;2024-01-16T12:16:01;-0.10;98.50
4635;DHT22;2330;48.158;11.816;2024-01-16T12:18:28;0.10;98.50
4635;DHT22;2330;48.158;11.816;2024-01-16T12:21:09;0.20;98.50
4635;DHT22;2330;48.158;11.816;2024-01-16T12:23:36;0.50;98.50
4635;DHT22;2330;48.158;11.816;2024-01-16T12:26:05;0.80;98.50
4635;DHT22;2330;48.158;11.816;2024-01-16T12:28:32;1.40;98.50
4635;DHT22;2330;48.158;11.816;2024-01-16T12:31:00;1.70;98.50
4635;DHT22;2330;48.158;11.816;2024-01-16T12:33:28;1.90;98.50
4635;DHT22;2330;48.158;11.816;2024-01-16T12:36:03;2.30;98.50
4635;DHT22;2330;48.158;11.816;2024-01-16T12:38:31;2.50;98.10
4635;DHT22;2330;48.158;11.816;2024-01-16T12:40:59;2.60;97.50
4635;DHT22;2330;48.158;11.816;2024-01-16T12:43:29;2.80;96.90
4635;DHT22;2330;48.158;11.816;2024-01-16T12:45:57;2.90;96.40
4635;DHT22;2330;48.158;11.816;2024-01-16T12:48:25;3.10;96.70
4635;DHT22;2330;48.158;11.816;2024-01-16T12:51:03;3.40;96.00
4635;DHT22;2330;48.158;11.816;2024-01-16T12:53:32;3.60;95.80
4635;DHT22;2330;48.158;11.816;2024-01-16T12:56:01;3.60;94.60
4635;DHT22;2330;48.158;11.816;2024-01-16T12:58:35;3.60;96.20
4635;DHT22;2330;48.158;11.816;2024-01-16T13:01:22;3.50;97.20
4635;DHT22;2330;48.158;11.816;2024-01-16T13:04:04;3.30;96.20
4635;DHT22;2330;48.158;11.816;2024-01-16T13:06:31;3.00;96.40
4635;DHT22;2330;48.158;11.816;2024-01-16T13:09:06;2.90;96.80
4635;DHT22;2330;48.158;11.816;2024-01-16T13:11:55;2.60;94.90
4635;DHT22;2330;48.158;11.816;2024-01-16T13:14:23;2.10;94.00
4635;DHT22;2330;48.158;11.816;2024-01-16T13:16:51;1.80;95.40
4635;DHT22;2330;48.158;11.816;2024-01-16T13:19:18;1.60;95.30
4635;DHT22;2330;48.158;11.816;2024-01-16T13:21:47;1.60;97.10
4635;DHT22;2330;48.158;11.816;2024-01-16T13:24:14;1.70;98.50
4635;DHT22;2330;48.158;11.816;2024-01-16T13:26:41;1.70;98.50
4635;DHT22;2330;48.158;11.816;2024-01-16T13:29:08;1.70;98.50
4635;DHT22;2330;48.158;11.816;2024-01-16T13:31:35;1.60;98.30
4635;DHT22;2330;48.158;11.816;2024-01-16T13:34:02;1.60;98.50
4635;DHT22;2330;48.158;11.816;2024-01-16T13:36:29;1.60;98.50
4635;DHT22;2330;48.158;11.816;2024-01-16T13:39:00;1.50;98.50
4635;DHT22;2330;48.158;11.816;2024-01-16T13:41:27;1.40;98.50
4635;DHT22;2330;48.158;11.816;2024-01-16T13:43:54;1.30;98.50
4635;DHT22;2330;48.158;11.816;2024-01-16T13:46:21;1.30;98.50
4635;DHT22;2330;48.158;11.816;2024-01-16T13:49:08;1.40;98.50
4635;DHT22;2330;48.158;11.816;2024-01-16T13:51:36;1.40;98.50
4635;DHT22;2330;48.158;11.816;2024-01-16T13:54:02;1.40;98.50
4635;DHT22;2330;48.158;11.816;2024-01-16T13:56:30;1.40;98.30
4635;DHT22;2330;48.158;11.816;2024-01-16T13:59:17;1.20;97.30
4635;DHT22;2330;48.158;11.816;2024-01-16T14:01:43;1.20;98.10
4635;DHT22;2330;48.158;11.816;2024-01-16T14:04:11;1.20;98.00
4635;DHT22;2330;48.158;11.816;2024-01-16T14:06:38;1.10;97.60
4635;DHT22;2330;48.158;11.816;2024-01-16T14:09:24;1.10;98.50
4635;DHT22;2330;48.158;11.816;2024-01-16T14:11:51;1.10;98.50
4635;DHT22;2330;48.158;11.816;2024-01-16T14:14:18;1.10;98.50
4635;DHT22;2330;48.158;11.816;2024-01-16T14:16:45;1.10;98.50
4635;DHT22;2330;48.158;11.816;2024-01-16T14:19:23;0.90;98.50
4635;DHT22;2330;48.158;11.816;2024-01-16T14:21:53;0.80;98.50
4635;DHT22;2330;48.158;11.816;2024-01-16T14:24:20;0.70;98.50
4635;DHT22;2330;48.158;11.816;2024-01-16T14:26:48;0.60;98.50
4635;DHT22;2330;48.158;11.816;2024-01-16T14:29:15;0.50;98.50
4635;DHT22;2330;48.158;11.816;2024-01-16T14:31:42;0.30;98.30
4635;DHT22;2330;48.158;11.816;2024-01-16T14:34:13;0.10;98.50
4635;DHT22;2330;48.158;11.816;2024-01-16T14:36:40;0.00;98.50
4635;DHT22;2330;48.158;11.816;2024-01-16T14:39:08;0.00;98.50
4635;DHT22;2330;48.158;11.816;2024-01-16T14:41:40;0.00;98.50
4635;DHT22;2330;48.158;11.816;2024-01-16T14:44:09;0.00;98.50
4635;DHT22;2330;48.158;11.816;2024-01-16T14:46:36;-0.10;98.50
4635;DHT22;2330;48.158;11.816;2024-01-16T14:49:03;-0.30;98.50
4635;DHT22;2330;48.158;11.816;2024-01-16T14:51:31;-0.40;98.50
4635;DHT22;2330;48.158;11.816;2024-01-16T14:53:57;-0.40;98.50
4635;DHT22;2330;48.158;11.816;2024-01-16T14:56:28;-0.40;98.50
4635;DHT22;2330;48.158;11.816;2024-01-16T14:58:55;-0.50;98.50
4635;DHT22;2330;48.158;11.816;2024-01-16T15:01:21;-0.50;98.50
4635;DHT22;2330;48.158;11.816;2024-01-16T15:03:48;-0.60;98.50
4635;DHT22;2330;48.158;11.816;2024-01-16T15:06:15;-0.70;98.50
4635;DHT22;2330;48.158;11.816;2024-01-16T15:08:43;-0.80;98.50
4635;DHT22;2330;48.158;11.816;2024-01-16T15:11:10;-0.90;98.50
4635;DHT22;2330;48.158;11.816;2024-01-16T15:13:37;-0.90;98.50
4635;DHT22;2330;48.158;11.816;2024-01-16T15:16:04;-0.90;98.50
4635;DHT22;2330;48.158;11.816;2024-01-16T15:18:31;-1.00;98.50
4635;DHT22;2330;48.158;11.816;2024-01-16T15:20:59;-1.00;98.50
4635;DHT22;2330;48.158;11.816;2024-01-16T15:23:26;-1.00;98.50
4635;DHT22;2330;48.158;11.816;2024-01-16T15:25:54;-1.00;98.50
4635;DHT22;2330;48.158;11.816;2024-01-16T15:28:21;-0.90;98.50
4635;DHT22;2330;48.158;11.816;2024-01-16T15:30:48;-1.00;98.50
4635;DHT22;2330;48.158;11.816;2024-01-16T15:33:15;-1.00;98.50
4635;DHT22;2330;48.158;11.816;2024-01-16T15:35:42;-1.10;98.50
4635;DHT22;2330;48.158;11.816;2024-01-16T15:38:09;-1.10;98.50
4635;DHT22;2330;48.158;11.816;2024-01-16T15:40:37;-1.20;98.50
4635;DHT22;2330;48.158;11.816;2024-01-16T15:43:03;-1.20;98.50
4635;DHT22;2330;48.158;11.816;2024-01-16T15:45:30;-1.20;98.50
4635;DHT22;2330;48.158;11.816;2024-01-16T15:47:57;-1.30;98.50
4635;DHT22;2330;48.158;11.816;2024-01-16T15:50:24;-1.30;98.50
4635;DHT22;2330;48.158;11.816;2024-01-16T15:52:53;-1.40;98.50
4635;DHT22;2330;48.158;11.816;2024-01-16T15:55:20;-1.40;98.50
4635;DHT22;2330;48.158;11.816;2024-01-16T15:57:47;-1.50;98.50
4635;DHT22;2330;48.158;11.816;2024-01-16T16:00:17;-1.50;98.50
4635;DHT22;2330;48.158;11.816;2024-01-16T16:02:47;-1.50;98.50